Abbyville, Kansas
Current Conditions -  °F | °C
As of 8:52 PM on Thursday 27 Nov 2014 (Local Time) from KHUT Reporting Station
Clear Clear  
Wind Chill: 31°   Ceiling: Unl
Heat Index: 40°   Visibility: 10mi
Dew Point: 21°   Wind: 16mph
Humidity: 47%   Direction: 170°S
Pressure: 30.17"   Gusts: NA
Location:  37.97°N, 98.2°W
Report Text: KHUT 280252Z 17014KT 10SM CLR 04/M06 A3017 RMK AO2 SLP220 T00441061 58028
Loading
Personal Weather Stations






























Interactive Weather Map New forecast layout! Learn more

10-Day Weather Forecast

Advertisements
Track Severe Weather on mobile